createdAt,value
2018-11-11T00:01:32.149Z,46.30
2018-11-11T00:06:35.796Z,45.85
2018-11-11T00:11:39.157Z,46.08
2018-11-11T00:16:42.396Z,46.43
2018-11-11T00:21:45.957Z,46.35
2018-11-11T00:26:49.170Z,46.12
2018-11-11T00:31:52.411Z,46.28
2018-11-11T00:36:55.660Z,46.50
2018-11-11T00:41:58.982Z,46.05
2018-11-11T00:47:02.384Z,46.11
2018-11-11T00:52:06.228Z,46.59
2018-11-11T00:57:09.673Z,46.44
2018-11-11T01:02:12.917Z,46.78
2018-11-11T01:07:16.166Z,46.78
2018-11-11T01:12:19.480Z,46.69
2018-11-11T01:17:22.981Z,46.40
2018-11-11T01:22:26.253Z,46.75
2018-11-11T01:27:29.558Z,46.21
2018-11-11T01:32:33.003Z,46.28
2018-11-11T01:37:36.394Z,46.66
2018-11-11T01:42:39.640Z,46.48
2018-11-11T01:47:43.546Z,46.39
2018-11-11T01:52:46.806Z,46.73
2018-11-11T01:57:50.227Z,46.51
2018-11-11T02:02:53.564Z,46.72
2018-11-11T02:07:56.916Z,46.46
2018-11-11T02:13:00.228Z,46.63
2018-11-11T02:18:03.617Z,46.31
2018-11-11T02:23:06.853Z,46.42
2018-11-11T02:28:10.173Z,46.82
2018-11-11T02:33:13.479Z,46.91
2018-11-11T02:38:16.813Z,46.44
2018-11-11T02:43:20.063Z,46.67
2018-11-11T02:48:23.414Z,46.88
2018-11-11T02:53:26.653Z,46.79
2018-11-11T02:58:29.901Z,46.88
2018-11-11T03:03:33.220Z,46.99
2018-11-11T03:08:36.550Z,47.01
2018-11-11T03:13:39.809Z,46.95
2018-11-11T03:18:43.051Z,46.69
2018-11-11T03:23:46.640Z,46.78
2018-11-11T03:28:49.889Z,46.87
2018-11-11T03:33:53.185Z,47.08
2018-11-11T03:38:56.482Z,47.29
2018-11-11T03:43:59.727Z,47.02
2018-11-11T03:49:03.029Z,46.89
2018-11-11T03:54:06.629Z,47.33
2018-11-11T03:59:09.875Z,46.75
2018-11-11T04:04:13.373Z,46.79
2018-11-11T04:09:16.705Z,46.96
2018-11-11T04:14:19.953Z,47.07
2018-11-11T04:19:23.467Z,47.30
2018-11-11T04:24:26.801Z,47.28
2018-11-11T04:29:30.048Z,46.84
2018-11-11T04:34:33.572Z,47.26
2018-11-11T04:39:36.844Z,47.02
2018-11-11T04:44:40.144Z,47.46
2018-11-11T04:49:43.517Z,47.33
2018-11-11T04:54:46.981Z,46.78
2018-11-11T04:59:50.242Z,47.19
2018-11-11T05:04:53.571Z,47.21
2018-11-11T05:09:57.140Z,47.39
2018-11-11T05:15:00.739Z,47.48
2018-11-11T05:20:04.520Z,47.16
2018-11-11T05:25:09.941Z,46.82
2018-11-11T05:30:14.092Z,46.99
2018-11-11T05:35:17.336Z,47.10
2018-11-11T05:40:20.572Z,47.10
2018-11-11T05:45:23.880Z,47.39
2018-11-11T05:50:27.128Z,47.17
2018-11-11T05:55:30.384Z,47.29
2018-11-11T06:00:34.151Z,46.89
2018-11-11T06:05:37.403Z,47.30
2018-11-11T06:10:40.641Z,46.93
2018-11-11T06:15:43.868Z,46.97
2018-11-11T06:20:47.100Z,47.25
2018-11-11T06:25:50.345Z,46.95
2018-11-11T06:30:53.589Z,47.27
2018-11-11T06:35:56.844Z,47.38
2018-11-11T06:41:00.092Z,46.93
2018-11-11T06:46:03.329Z,47.04
2018-11-11T06:51:06.582Z,47.47
2018-11-11T06:56:09.837Z,47.47
2018-11-11T07:01:13.083Z,47.58
2018-11-11T07:06:16.341Z,47.62
2018-11-11T07:11:20.009Z,47.56
2018-11-11T07:16:23.254Z,47.09
2018-11-11T07:21:26.501Z,47.09
2018-11-11T07:26:29.772Z,47.14
2018-11-11T07:31:33.083Z,47.42
2018-11-11T07:36:36.288Z,47.23
2018-11-11T07:41:39.533Z,47.55
2018-11-11T07:46:42.772Z,47.18
2018-11-11T07:51:46.060Z,47.58
2018-11-11T07:56:49.289Z,47.40
2018-11-11T08:01:52.548Z,47.16
2018-11-11T08:06:55.870Z,42.16
2018-11-11T08:12:00.456Z,40.40
2018-11-11T08:17:03.723Z,40.64
2018-11-11T08:22:06.970Z,39.86
2018-11-11T08:27:10.244Z,40.15
2018-11-11T08:32:13.715Z,40.46
2018-11-11T08:37:16.965Z,41.50
2018-11-11T08:42:20.204Z,41.41
2018-11-11T08:47:23.460Z,42.25
2018-11-11T08:52:26.711Z,41.93
2018-11-11T08:57:29.964Z,42.02
2018-11-11T09:02:34.388Z,42.27
2018-11-11T09:07:38.139Z,42.41
2018-11-11T09:12:41.492Z,42.80
2018-11-11T09:17:45.166Z,42.44
2018-11-11T09:22:48.440Z,42.83
2018-11-11T09:27:51.769Z,42.88
2018-11-11T09:32:55.084Z,42.93
2018-11-11T09:37:58.472Z,43.16
2018-11-11T09:43:01.808Z,42.79
2018-11-11T09:48:05.143Z,43.13
2018-11-11T09:53:08.594Z,43.06
2018-11-11T09:58:11.961Z,42.69
2018-11-11T10:03:19.798Z,42.83
2018-11-11T10:09:01.511Z,43.13
2018-11-11T10:15:12.262Z,42.83
2018-11-11T10:20:20.884Z,43.05
2018-11-11T10:25:34.553Z,42.83
2018-11-11T10:30:56.601Z,43.20
2018-11-11T10:36:08.930Z,43.08
2018-11-11T10:41:16.364Z,43.01
2018-11-11T10:46:28.377Z,43.05
2018-11-11T10:51:32.183Z,42.86
2018-11-11T10:56:35.795Z,42.91
2018-11-11T11:01:44.680Z,42.83
2018-11-11T11:06:53.472Z,42.60
2018-11-11T11:11:56.750Z,42.97
2018-11-11T11:17:00.723Z,42.62
2018-11-11T11:22:04.018Z,43.15
2018-11-11T11:27:07.614Z,42.78
2018-11-11T11:32:10.973Z,42.84
2018-11-11T11:37:14.189Z,42.89
2018-11-11T11:42:17.452Z,42.55
2018-11-11T11:47:20.791Z,42.84
2018-11-11T11:52:24.600Z,42.84
2018-11-11T11:57:27.864Z,43.54
2018-11-11T12:02:31.125Z,44.32
2018-11-11T12:07:34.393Z,44.10
2018-11-11T12:12:37.952Z,44.80
2018-11-11T12:17:41.352Z,45.43
2018-11-11T12:22:44.783Z,45.20
2018-11-11T12:27:48.292Z,45.69
2018-11-11T12:32:51.760Z,45.42
2018-11-11T12:37:55.017Z,45.81
2018-11-11T12:42:58.716Z,45.96
2018-11-11T12:48:01.957Z,46.20
2018-11-11T12:53:08.105Z,45.18
2018-11-11T12:58:11.543Z,44.17
2018-11-11T13:03:14.804Z,43.19
2018-11-11T13:08:18.054Z,42.46
2018-11-11T13:13:21.303Z,42.43
2018-11-11T13:18:25.108Z,42.03
2018-11-11T13:23:28.360Z,42.19
2018-11-11T13:28:31.660Z,41.95
2018-11-11T13:33:34.945Z,41.92
2018-11-11T13:38:38.255Z,41.51
2018-11-11T13:43:41.449Z,41.31
2018-11-11T13:48:44.684Z,41.45
2018-11-11T13:53:47.945Z,42.02
2018-11-11T13:58:51.188Z,41.59
2018-11-11T14:03:54.501Z,41.38
2018-11-11T14:08:58.648Z,41.54
2018-11-11T14:14:01.960Z,42.08
2018-11-11T14:19:05.735Z,41.54
2018-11-11T14:24:08.885Z,41.59
2018-11-11T14:29:12.429Z,41.92
2018-11-11T14:34:15.705Z,41.96
2018-11-11T14:39:19.224Z,41.89
2018-11-11T14:44:22.701Z,42.10
2018-11-11T14:49:25.982Z,41.70
2018-11-11T14:54:29.369Z,42.00
2018-11-11T14:59:32.696Z,42.55
2018-11-11T15:04:36.084Z,42.67
2018-11-11T15:09:39.882Z,42.82
2018-11-11T15:14:43.134Z,42.85
2018-11-11T15:19:46.469Z,43.76
2018-11-11T15:24:49.710Z,43.81
2018-11-11T15:29:52.949Z,43.95
2018-11-11T15:34:56.432Z,43.74
2018-11-11T15:40:00.493Z,43.93
2018-11-11T15:45:04.230Z,44.47
2018-11-11T15:50:10.424Z,44.19
2018-11-11T15:55:14.499Z,44.24
2018-11-11T16:00:19.256Z,44.26
2018-11-11T16:05:23.393Z,44.68
2018-11-11T16:10:27.801Z,44.45
2018-11-11T16:15:32.624Z,44.52
2018-11-11T16:20:36.386Z,44.82
2018-11-11T16:25:39.755Z,45.04
2018-11-11T16:30:42.995Z,44.49
2018-11-11T16:35:46.368Z,45.17
2018-11-11T16:40:49.776Z,44.95
2018-11-11T16:45:53.166Z,45.21
2018-11-11T16:50:56.594Z,45.04
2018-11-11T16:55:59.833Z,44.73
2018-11-11T17:01:03.285Z,45.03
2018-11-11T17:06:07.205Z,45.02
2018-11-11T17:11:10.659Z,45.37
2018-11-11T17:16:15.529Z,45.18
2018-11-11T17:21:18.853Z,45.60
2018-11-11T17:26:22.082Z,45.16
2018-11-11T17:31:25.612Z,45.19
2018-11-11T17:36:28.885Z,45.78
2018-11-11T17:41:32.167Z,45.74
2018-11-11T17:46:35.484Z,46.41
2018-11-11T17:51:38.828Z,45.97
2018-11-11T17:56:42.133Z,46.20
2018-11-11T18:01:45.429Z,46.10
2018-11-11T18:06:48.741Z,46.62
2018-11-11T18:11:52.025Z,46.07
2018-11-11T18:16:55.353Z,46.14
2018-11-11T18:21:58.732Z,46.42
2018-11-11T18:27:02.144Z,46.49
2018-11-11T18:32:06.221Z,46.56
2018-11-11T18:37:09.508Z,46.77
2018-11-11T18:42:12.788Z,46.69
2018-11-11T18:47:16.291Z,46.36
2018-11-11T18:52:19.604Z,46.42
2018-11-11T18:57:23.031Z,46.83
2018-11-11T19:02:26.193Z,46.66
2018-11-11T19:07:29.674Z,46.72
2018-11-11T19:12:33.645Z,46.74
2018-11-11T19:17:44.343Z,46.85
2018-11-11T19:22:47.632Z,47.09
2018-11-11T19:27:52.218Z,46.88
2018-11-11T19:32:55.498Z,46.41
2018-11-11T19:37:59.244Z,46.73
2018-11-11T19:43:02.633Z,46.81
2018-11-11T19:48:06.319Z,46.82
2018-11-11T19:53:09.589Z,46.63
2018-11-11T19:58:13.736Z,46.70
2018-11-11T20:03:17.081Z,46.71
2018-11-11T20:08:20.317Z,47.06
2018-11-11T20:13:23.668Z,46.47
2018-11-11T20:18:26.971Z,46.82
2018-11-11T20:23:30.285Z,46.51
2018-11-11T20:28:33.933Z,46.39
2018-11-11T20:33:38.082Z,46.67
2018-11-11T20:38:41.597Z,46.29
2018-11-11T20:43:45.142Z,46.26
2018-11-11T20:48:48.436Z,46.67
2018-11-11T20:53:51.760Z,46.73
2018-11-11T20:58:55.139Z,46.33
2018-11-11T21:03:58.678Z,46.48
2018-11-11T21:09:02.138Z,46.34
2018-11-11T21:14:05.861Z,46.79
2018-11-11T21:19:09.455Z,46.80
2018-11-11T21:24:12.732Z,46.86
2018-11-11T21:29:16.005Z,46.68
2018-11-11T21:34:19.277Z,47.01
2018-11-11T21:39:22.728Z,47.28
2018-11-11T21:44:26.003Z,47.43
2018-11-11T21:49:29.340Z,46.80
2018-11-11T21:54:32.603Z,47.27
2018-11-11T21:59:35.931Z,46.95
2018-11-11T22:04:39.213Z,46.89
2018-11-11T22:09:42.518Z,47.46
2018-11-11T22:14:45.805Z,47.37
2018-11-11T22:19:49.076Z,47.02
2018-11-11T22:24:52.432Z,47.41
2018-11-11T22:29:55.833Z,47.24
2018-11-11T22:34:59.120Z,47.52
2018-11-11T22:40:02.413Z,47.53
2018-11-11T22:45:08.064Z,47.31
2018-11-11T22:50:14.247Z,47.71
2018-11-11T22:55:17.508Z,47.48
2018-11-11T23:00:26.349Z,47.86
2018-11-11T23:05:29.666Z,48.01
2018-11-11T23:10:32.945Z,47.38
2018-11-11T23:15:36.209Z,47.57
2018-11-11T23:20:39.493Z,48.09
2018-11-11T23:25:42.801Z,47.77
2018-11-11T23:30:46.048Z,47.73
2018-11-11T23:35:49.348Z,47.95
2018-11-11T23:40:53.025Z,48.24
2018-11-11T23:45:56.380Z,48.17
2018-11-11T23:50:59.640Z,48.28
2018-11-11T23:56:03.036Z,48.21
